createdAt,value
2019-04-22T00:00:36.006Z,7.07
2019-04-22T00:03:06.492Z,6.73
2019-04-22T00:05:56.234Z,6.77
2019-04-22T00:08:32.710Z,6.80
2019-04-22T00:11:03.145Z,7.77
2019-04-22T00:13:43.050Z,7.73
2019-04-22T00:16:07.261Z,8.50
2019-04-22T00:18:54.767Z,7.60
2019-04-22T00:21:12.571Z,8.10
2019-04-22T00:23:45.309Z,7.65
2019-04-22T00:26:16.567Z,7.83
2019-04-22T00:28:52.139Z,8.10
2019-04-22T00:31:40.402Z,7.53
2019-04-22T00:34:16.738Z,7.43
2019-04-22T00:36:54.330Z,7.47
2019-04-22T00:39:33.858Z,6.90
2019-04-22T00:42:01.866Z,7.30
2019-04-22T00:44:33.341Z,7.60
2019-04-22T00:47:14.568Z,6.80
2019-04-22T00:50:07.892Z,7.70
2019-04-22T00:52:10.843Z,6.60
2019-04-22T00:54:47.409Z,7.33
2019-04-22T00:57:10.494Z,7.00
2019-04-22T00:59:48.491Z,8.30
2019-04-22T01:02:18.536Z,7.03
2019-04-22T01:04:47.514Z,7.47
2019-04-22T01:07:21.748Z,7.63
2019-04-22T01:09:51.798Z,7.70
2019-04-22T01:12:28.430Z,7.20
2019-04-22T01:14:53.829Z,8.00
2019-04-22T01:17:29.331Z,7.53
2019-04-22T01:22:27.070Z,7.47
2019-04-22T01:25:02.533Z,7.70
2019-04-22T01:27:32.396Z,7.57
2019-04-22T01:29:59.689Z,7.50
2019-04-22T01:32:23.963Z,7.70
2019-04-22T01:35:02.989Z,8.17
2019-04-22T01:37:44.355Z,8.17
2019-04-22T01:40:18.044Z,7.87
2019-04-22T01:42:59.805Z,6.60
2019-04-22T01:45:29.534Z,7.90
2019-04-22T01:47:58.462Z,7.50
2019-04-22T01:50:27.736Z,7.33
2019-04-22T01:53:11.635Z,8.70
2019-04-22T01:55:39.100Z,8.00
2019-04-22T01:57:59.615Z,7.50
2019-04-22T02:00:38.558Z,7.17
2019-04-22T02:03:12.635Z,7.80
2019-04-22T02:05:35.845Z,7.20
2019-04-22T02:08:29.080Z,7.60
2019-04-22T02:10:48.000Z,7.63
2019-04-22T02:13:15.830Z,7.40
2019-04-22T02:15:52.473Z,7.63
2019-04-22T02:18:23.162Z,7.17
2019-04-22T02:20:59.711Z,7.77
2019-04-22T02:36:22.682Z,8.73
2019-04-22T02:38:58.404Z,9.50
2019-04-22T02:41:31.546Z,8.20
2019-04-22T02:44:04.246Z,8.00
2019-04-22T02:46:44.943Z,8.10
2019-04-22T02:49:11.646Z,8.67
2019-04-22T02:51:27.775Z,9.10
2019-04-22T02:59:12.398Z,7.80
2019-04-22T03:01:47.760Z,8.30
2019-04-22T03:04:09.375Z,8.40
2019-04-22T03:06:42.132Z,8.78
2019-04-22T03:09:18.480Z,8.70
2019-04-22T03:11:56.666Z,8.53
2019-04-22T03:14:28.808Z,8.63
2019-04-22T03:19:43.374Z,7.40
2019-04-22T03:21:54.545Z,8.70
2019-04-22T03:27:00.788Z,8.67
2019-04-22T03:35:40.002Z,8.10
2019-04-22T03:40:28.210Z,7.90
2019-04-22T03:48:00.901Z,8.63
2019-04-22T03:53:04.042Z,8.77
2019-04-22T04:08:30.078Z,8.07
2019-04-22T04:10:40.105Z,8.30
2019-04-22T04:13:33.797Z,7.80
2019-04-22T04:15:55.899Z,7.23
2019-04-22T04:18:41.258Z,7.60
2019-04-22T04:28:53.235Z,8.17
2019-04-22T04:31:11.337Z,7.93
2019-04-22T04:33:29.120Z,8.10
2019-04-22T04:36:03.028Z,9.03
2019-04-22T04:38:36.642Z,8.50
2019-04-22T04:41:17.209Z,8.40
2019-04-22T04:43:50.425Z,9.07
2019-04-22T04:46:24.222Z,8.40
2019-04-22T04:48:55.409Z,8.28
2019-04-22T04:51:31.000Z,8.13
2019-04-22T04:54:12.605Z,8.20
2019-04-22T04:56:34.740Z,7.40
2019-04-22T05:06:33.117Z,7.90
2019-04-22T05:09:13.554Z,7.60
2019-04-22T05:14:05.529Z,7.80
2019-04-22T05:19:12.214Z,7.27
2019-04-22T05:21:29.615Z,7.30
2019-04-22T05:24:19.396Z,7.50
2019-04-22T05:26:39.399Z,6.25
2019-04-22T05:29:14.493Z,6.83
2019-04-22T05:31:47.865Z,6.07
2019-04-22T05:34:19.462Z,7.90
2019-04-22T05:36:49.447Z,5.90
2019-04-22T05:39:16.815Z,6.90
2019-04-22T05:41:48.395Z,6.67
2019-04-22T05:44:28.143Z,7.47
2019-04-22T05:46:52.738Z,7.10
2019-04-22T05:51:54.865Z,7.23
2019-04-22T05:54:35.229Z,6.87
2019-04-22T05:57:02.352Z,8.20
2019-04-22T05:59:39.561Z,6.50
2019-04-22T06:02:13.598Z,6.53
2019-04-22T06:04:48.470Z,7.40
2019-04-22T06:07:13.771Z,6.47
2019-04-22T06:09:47.265Z,6.90
2019-04-22T06:12:17.387Z,8.00
2019-04-22T06:14:54.070Z,8.67
2019-04-22T06:17:35.685Z,7.40
2019-04-22T06:19:58.660Z,6.40
2019-04-22T06:22:44.998Z,7.00
2019-04-22T06:27:52.429Z,7.12
2019-04-22T06:30:11.161Z,6.73
2019-04-22T06:32:40.083Z,7.50
2019-04-22T06:35:18.408Z,6.70
2019-04-22T06:37:55.526Z,7.00
2019-04-22T06:40:24.809Z,7.33
2019-04-22T06:42:56.587Z,6.80
2019-04-22T06:45:24.886Z,7.10
2019-04-22T06:48:01.816Z,7.30
2019-04-22T06:50:32.812Z,6.93
2019-04-22T06:52:56.890Z,7.00
2019-04-22T06:55:35.771Z,6.13
2019-04-22T06:58:04.882Z,7.40
2019-04-22T07:00:36.952Z,7.58
2019-04-22T07:05:41.321Z,6.33
2019-04-22T07:08:39.404Z,8.07
2019-04-22T07:10:47.754Z,6.50
2019-04-22T07:13:25.886Z,6.90
2019-04-22T07:18:24.727Z,6.77
2019-04-22T07:20:56.375Z,6.83
2019-04-22T07:25:58.197Z,6.30
2019-04-22T07:28:24.012Z,5.53
2019-04-22T07:31:08.124Z,5.93
2019-04-22T07:33:37.830Z,5.83
2019-04-22T07:36:56.680Z,6.47
2019-04-22T07:38:29.857Z,5.60
2019-04-22T07:41:05.429Z,5.70
2019-04-22T07:43:59.712Z,5.70
2019-04-22T07:46:13.599Z,5.60
2019-04-22T07:51:23.807Z,5.30
2019-04-22T07:53:49.007Z,5.87
2019-04-22T07:56:24.585Z,5.80
2019-04-22T07:58:56.862Z,5.03
2019-04-22T08:01:29.636Z,6.10
2019-04-22T08:04:09.412Z,5.23
2019-04-22T08:06:33.390Z,6.20
2019-04-22T08:09:09.347Z,5.37
2019-04-22T08:14:07.546Z,6.73
2019-04-22T08:16:45.180Z,5.57
2019-04-22T08:19:15.490Z,6.33
2019-04-22T08:21:49.398Z,6.40
2019-04-22T08:24:20.181Z,5.00
2019-04-22T08:27:08.727Z,5.50
2019-04-22T08:29:25.437Z,5.70
2019-04-22T08:31:56.643Z,5.07
2019-04-22T08:34:26.127Z,6.23
2019-04-22T08:37:34.257Z,5.80
2019-04-22T08:41:57.303Z,6.73
2019-04-22T08:44:55.287Z,6.07
2019-04-22T08:47:11.153Z,6.23
2019-04-22T08:49:44.367Z,6.17
2019-04-22T08:52:08.796Z,6.20
2019-04-22T08:54:44.587Z,6.80
2019-04-22T08:57:20.664Z,6.33
2019-04-22T08:59:50.173Z,6.23
2019-04-22T09:02:20.214Z,5.93
2019-04-22T09:04:48.348Z,5.77
2019-04-22T09:09:53.637Z,6.43
2019-04-22T09:12:44.492Z,7.53
2019-04-22T09:14:49.318Z,5.93
2019-04-22T09:17:27.886Z,6.20
2019-04-22T09:20:00.405Z,6.50
2019-04-22T09:22:36.287Z,6.50
2019-04-22T09:25:03.134Z,6.40
2019-04-22T09:27:44.204Z,6.80
2019-04-22T09:30:17.103Z,6.60
2019-04-22T09:32:52.364Z,6.80
2019-04-22T09:35:09.751Z,6.77
2019-04-22T09:37:48.381Z,6.50
2019-04-22T09:40:21.701Z,6.33
2019-04-22T09:42:50.479Z,6.40
2019-04-22T09:45:25.280Z,5.87
2019-04-22T09:48:03.081Z,6.77
2019-04-22T09:50:32.094Z,6.77
2019-04-22T09:55:28.187Z,5.90
2019-04-22T09:58:03.214Z,6.73
2019-04-22T10:00:46.178Z,7.03
2019-04-22T10:03:13.668Z,6.00
2019-04-22T10:06:11.743Z,6.07
2019-04-22T10:08:25.267Z,6.60
2019-04-22T10:10:49.058Z,7.20
2019-04-22T10:13:19.064Z,6.93
2019-04-22T10:15:55.860Z,6.47
2019-04-22T10:18:25.898Z,6.80
2019-04-22T10:20:54.240Z,7.30
2019-04-22T10:23:34.499Z,6.37
2019-04-22T10:26:05.304Z,6.30
2019-04-22T10:28:40.013Z,7.07
2019-04-22T10:31:00.488Z,6.80
2019-04-22T10:33:33.232Z,6.57
2019-04-22T10:35:43.641Z,7.27
2019-04-22T10:38:14.451Z,6.77
2019-04-22T10:40:46.715Z,7.27
2019-04-22T10:43:17.467Z,6.60
2019-04-22T10:45:48.109Z,6.80
2019-04-22T10:48:18.635Z,7.00
2019-04-22T10:50:50.632Z,6.63
2019-04-22T10:53:21.715Z,7.23
2019-04-22T10:55:52.049Z,6.77
2019-04-22T10:58:22.855Z,7.30
2019-04-22T11:00:56.195Z,7.00
2019-04-22T11:03:28.355Z,6.87
2019-04-22T11:05:59.328Z,6.67
2019-04-22T11:08:38.903Z,6.77
2019-04-22T11:11:16.179Z,7.00
2019-04-22T11:13:34.107Z,6.80
2019-04-22T11:16:05.538Z,6.57
2019-04-22T11:18:35.966Z,6.63
2019-04-22T11:21:07.432Z,6.63
2019-04-22T11:23:38.667Z,6.87
2019-04-22T11:26:10.128Z,6.40
2019-04-22T11:28:41.391Z,6.43
2019-04-22T11:31:12.483Z,6.53
2019-04-22T11:33:42.927Z,6.93
2019-04-22T11:36:13.692Z,6.43
2019-04-22T11:38:51.999Z,6.30
2019-04-22T11:41:16.809Z,6.30
2019-04-22T11:43:47.409Z,6.30
2019-04-22T11:46:17.773Z,7.13
2019-04-22T11:48:47.955Z,5.87
2019-04-22T11:51:18.328Z,6.87
2019-04-22T11:53:49.102Z,6.27
2019-04-22T11:56:20.820Z,6.87
2019-04-22T11:58:52.828Z,6.17
2019-04-22T12:01:24.469Z,6.80
2019-04-22T12:03:55.804Z,5.70
2019-04-22T12:06:26.394Z,5.63
2019-04-22T12:08:57.581Z,6.90
2019-04-22T12:11:28.266Z,5.93
2019-04-22T12:14:00.018Z,6.23
2019-04-22T12:16:31.670Z,5.97
2019-04-22T12:19:03.143Z,5.50
2019-04-22T12:21:35.048Z,6.23
2019-04-22T12:24:06.406Z,5.57
2019-04-22T12:26:37.968Z,6.20
2019-04-22T12:29:09.329Z,5.30
2019-04-22T12:31:39.987Z,6.03
2019-04-22T12:34:11.208Z,6.40
2019-04-22T12:36:42.741Z,6.03
2019-04-22T12:39:13.791Z,5.67
2019-04-22T12:41:44.343Z,6.67
2019-04-22T12:44:15.945Z,6.13
2019-04-22T12:46:46.230Z,6.20
2019-04-22T12:49:16.511Z,6.70
2019-04-22T12:51:49.242Z,5.87
2019-04-22T12:54:19.515Z,6.17
2019-04-22T12:56:51.273Z,6.17
2019-04-22T12:59:23.484Z,6.80
2019-04-22T13:01:55.110Z,5.97
2019-04-22T13:04:27.942Z,6.27
2019-04-22T13:06:59.615Z,6.33
2019-04-22T13:09:31.461Z,6.20
2019-04-22T13:12:03.242Z,7.20
2019-04-22T13:14:34.895Z,5.90
2019-04-22T13:17:06.224Z,6.23
2019-04-22T13:19:38.058Z,6.50
2019-04-22T13:22:09.296Z,6.43
2019-04-22T13:24:39.805Z,6.17
2019-04-22T13:27:10.952Z,6.10
2019-04-22T13:29:41.322Z,6.50
2019-04-22T13:32:13.010Z,6.40
2019-04-22T13:34:49.191Z,6.40
2019-04-22T13:37:16.704Z,6.63
2019-04-22T13:39:47.374Z,5.87
2019-04-22T13:42:20.365Z,6.30
2019-04-22T13:44:49.759Z,5.77
2019-04-22T13:47:36.075Z,6.00
2019-04-22T13:50:23.612Z,5.43
2019-04-22T13:52:54.959Z,5.27
2019-04-22T13:55:29.120Z,5.70
2019-04-22T13:57:50.326Z,5.90
2019-04-22T14:00:03.811Z,6.00
2019-04-22T14:02:50.794Z,5.83
2019-04-22T14:05:24.450Z,5.70
2019-04-22T14:07:55.658Z,6.30
2019-04-22T14:10:26.967Z,5.50
2019-04-22T14:13:00.088Z,5.67
2019-04-22T14:15:29.843Z,5.90
2019-04-22T14:18:00.974Z,5.50
2019-04-22T14:20:32.710Z,5.60
2019-04-22T14:23:06.013Z,5.47
2019-04-22T14:25:36.819Z,5.80
2019-04-22T14:28:13.872Z,5.63
2019-04-22T14:30:42.322Z,5.50
2019-04-22T14:33:14.045Z,5.70
2019-04-22T14:35:45.803Z,5.27
2019-04-22T14:38:18.254Z,5.40
2019-04-22T14:40:49.915Z,5.70
2019-04-22T14:43:54.221Z,5.30
2019-04-22T14:46:36.455Z,5.47
2019-04-22T14:48:49.738Z,5.33
2019-04-22T14:51:16.048Z,5.37
2019-04-22T14:53:44.796Z,5.53
2019-04-22T14:56:00.428Z,5.57
2019-04-22T14:58:31.080Z,5.37
2019-04-22T15:01:01.364Z,5.30
2019-04-22T15:03:31.775Z,5.70
2019-04-22T15:06:02.209Z,5.40
2019-04-22T15:08:32.984Z,5.60
2019-04-22T15:11:06.289Z,5.15
2019-04-22T15:13:36.613Z,4.70
2019-04-22T15:16:25.967Z,5.50
2019-04-22T15:19:09.604Z,5.03
2019-04-22T15:21:40.929Z,5.80
2019-04-22T15:24:25.091Z,5.15
2019-04-22T15:26:58.647Z,5.33
2019-04-22T15:29:29.578Z,5.70
2019-04-22T15:32:00.116Z,5.40
2019-04-22T15:34:30.846Z,5.17
2019-04-22T15:37:02.630Z,5.30
2019-04-22T15:39:33.969Z,4.97
2019-04-22T15:42:17.073Z,5.10
2019-04-22T15:44:39.900Z,5.70
2019-04-22T15:47:11.151Z,5.70
2019-04-22T15:49:42.243Z,5.43
2019-04-22T15:52:12.784Z,5.60
2019-04-22T15:54:43.789Z,5.30
2019-04-22T15:57:17.009Z,5.80
2019-04-22T16:00:04.954Z,5.43
2019-04-22T16:02:21.414Z,4.90
2019-04-22T16:04:52.764Z,4.97
2019-04-22T16:07:26.001Z,5.00
2019-04-22T16:09:55.304Z,5.20
2019-04-22T16:12:30.864Z,5.00
2019-04-22T16:14:59.694Z,4.87
2019-04-22T16:17:30.691Z,4.93
2019-04-22T16:20:01.681Z,4.63
2019-04-22T16:22:34.340Z,4.83
2019-04-22T16:25:25.090Z,5.00
2019-04-22T16:27:56.448Z,5.10
2019-04-22T16:30:27.784Z,5.07
2019-04-22T16:33:03.463Z,4.80
2019-04-22T16:35:35.039Z,4.50
2019-04-22T16:38:06.792Z,4.70
2019-04-22T16:40:37.141Z,4.60
2019-04-22T16:43:09.325Z,4.33
2019-04-22T16:45:39.976Z,4.40
2019-04-22T16:48:11.597Z,4.93
2019-04-22T16:50:46.611Z,4.90
2019-04-22T16:53:16.830Z,4.58
2019-04-22T16:55:48.730Z,4.33
2019-04-22T16:58:19.150Z,4.57
2019-04-22T17:00:49.775Z,4.27
2019-04-22T17:03:48.889Z,3.83
2019-04-22T17:06:31.986Z,4.23
2019-04-22T17:09:02.597Z,4.20
2019-04-22T17:11:35.866Z,4.10
2019-04-22T17:14:07.723Z,4.50
2019-04-22T17:16:38.744Z,4.30
2019-04-22T17:19:09.124Z,5.27
2019-04-22T17:21:39.640Z,4.40
2019-04-22T17:24:10.160Z,4.53
2019-04-22T17:26:40.306Z,4.60
2019-04-22T17:29:10.453Z,5.10
2019-04-22T17:31:50.272Z,4.43
2019-04-22T17:34:13.849Z,4.27
2019-04-22T17:36:46.114Z,4.20
2019-04-22T17:39:30.237Z,4.40
2019-04-22T17:42:11.225Z,3.80
2019-04-22T17:47:23.663Z,4.50
2019-04-22T17:50:10.046Z,4.20
2019-04-22T17:52:37.572Z,4.30
2019-04-22T17:55:04.523Z,3.93
2019-04-22T17:57:39.186Z,4.60
2019-04-22T18:00:10.864Z,4.50
2019-04-22T18:02:42.954Z,4.53
2019-04-22T18:05:03.502Z,4.67
2019-04-22T18:07:49.330Z,4.90
2019-04-22T18:10:33.008Z,4.93
2019-04-22T18:13:07.552Z,4.60
2019-04-22T18:15:29.431Z,4.80
2019-04-22T18:18:06.582Z,4.50
2019-04-22T18:20:32.242Z,4.90
2019-04-22T18:22:54.322Z,4.40
2019-04-22T18:25:34.197Z,4.93
2019-04-22T18:30:34.494Z,4.73
2019-04-22T18:33:15.809Z,5.07
2019-04-22T18:35:44.451Z,5.13
2019-04-22T18:38:28.223Z,5.47
2019-04-22T18:40:53.639Z,5.40
2019-04-22T18:43:27.673Z,5.13
2019-04-22T18:46:00.298Z,5.20
2019-04-22T18:48:25.512Z,5.40
2019-04-22T18:51:13.281Z,5.07
2019-04-22T18:54:20.780Z,4.77
2019-04-22T18:56:50.882Z,5.60
2019-04-22T18:59:15.795Z,5.40
2019-04-22T19:01:39.746Z,6.00
2019-04-22T19:04:18.896Z,5.37
2019-04-22T19:07:03.589Z,5.47
2019-04-22T19:09:45.670Z,5.53
2019-04-22T19:12:22.343Z,5.67
2019-04-22T19:14:49.973Z,5.50
2019-04-22T19:17:31.597Z,5.40
2019-04-22T19:19:54.386Z,5.70
2019-04-22T19:22:25.391Z,5.80
2019-04-22T19:24:47.612Z,5.53
2019-04-22T19:27:20.226Z,5.43
2019-04-22T19:30:01.484Z,5.87
2019-04-22T19:32:25.122Z,6.20
2019-04-22T19:34:59.986Z,6.07
2019-04-22T19:37:28.823Z,6.70
2019-04-22T19:42:45.841Z,6.40
2019-04-22T19:45:13.300Z,6.33
2019-04-22T19:47:53.569Z,7.03
2019-04-22T19:50:16.538Z,7.37
2019-04-22T19:52:43.530Z,5.97
2019-04-22T19:55:19.075Z,6.70
2019-04-22T19:57:50.308Z,7.60
2019-04-22T20:00:34.001Z,6.60
2019-04-22T20:03:20.242Z,7.27
2019-04-22T20:05:53.086Z,6.60
2019-04-22T20:08:34.094Z,6.17
2019-04-22T20:10:55.158Z,6.30
2019-04-22T20:13:33.533Z,6.23
2019-04-22T20:15:52.689Z,7.00
2019-04-22T20:21:07.524Z,7.20
2019-04-22T20:23:29.533Z,5.75
2019-04-22T20:26:00.549Z,6.90
2019-04-22T20:28:39.229Z,7.17
2019-04-22T20:31:14.202Z,5.77
2019-04-22T20:33:49.841Z,6.50
2019-04-22T20:36:26.740Z,7.50
2019-04-22T20:38:46.662Z,6.93
2019-04-22T20:41:15.960Z,6.20
2019-04-22T20:43:52.555Z,6.63
2019-04-22T20:46:20.611Z,6.40
2019-04-22T20:48:54.923Z,6.17
2019-04-22T20:51:31.055Z,6.83
2019-04-22T20:54:02.085Z,6.27
2019-04-22T20:56:30.035Z,6.23
2019-04-22T20:59:05.044Z,7.00
2019-04-22T21:01:41.430Z,6.50
2019-04-22T21:03:56.739Z,6.30
2019-04-22T21:06:38.409Z,6.27
2019-04-22T21:09:15.539Z,6.90
2019-04-22T21:11:38.500Z,6.60
2019-04-22T21:14:17.777Z,6.60
2019-04-22T21:16:51.406Z,6.90
2019-04-22T21:19:29.658Z,6.53
2019-04-22T21:21:59.707Z,6.80
2019-04-22T21:24:23.666Z,6.75
2019-04-22T21:26:58.416Z,6.30
2019-04-22T21:29:29.435Z,6.53
2019-04-22T21:32:01.569Z,6.40
2019-04-22T21:34:32.223Z,6.65
2019-04-22T21:37:15.720Z,7.53
2019-04-22T21:39:40.217Z,6.50
2019-04-22T21:42:11.841Z,6.80
2019-04-22T21:44:43.263Z,7.42
2019-04-22T21:47:26.083Z,6.77
2019-04-22T21:49:53.495Z,7.67
2019-04-22T21:52:24.479Z,6.93
2019-04-22T21:54:59.729Z,7.03
2019-04-22T21:57:57.755Z,6.30
2019-04-22T22:00:31.069Z,7.40
2019-04-22T22:02:59.212Z,7.27
2019-04-22T22:05:21.972Z,7.47
2019-04-22T22:07:48.074Z,6.87
2019-04-22T22:10:36.991Z,8.10
2019-04-22T22:13:09.715Z,7.10
2019-04-22T22:15:35.069Z,6.50
2019-04-22T22:18:08.423Z,7.20
2019-04-22T22:20:43.225Z,7.70
2019-04-22T22:23:22.318Z,6.53
2019-04-22T22:25:45.231Z,7.13
2019-04-22T22:28:33.285Z,8.70
2019-04-22T22:30:58.258Z,7.93
2019-04-22T22:33:27.155Z,7.17
2019-04-22T22:35:51.917Z,7.43
2019-04-22T22:38:22.991Z,9.10
2019-04-22T22:40:40.432Z,7.77
2019-04-22T22:43:19.042Z,8.00
2019-04-22T22:45:54.475Z,8.27
2019-04-22T22:48:39.930Z,8.27
2019-04-22T22:51:03.410Z,7.87
2019-04-22T22:53:47.895Z,7.93
2019-04-22T22:56:14.209Z,7.90
2019-04-22T22:58:45.371Z,8.23
2019-04-22T23:01:21.241Z,7.53
2019-04-22T23:04:07.049Z,7.63
2019-04-22T23:06:29.386Z,8.13
2019-04-22T23:08:52.679Z,8.27
2019-04-22T23:11:40.482Z,8.03
2019-04-22T23:13:56.853Z,8.10
2019-04-22T23:16:17.550Z,8.37
2019-04-22T23:18:57.663Z,8.07
2019-04-22T23:21:36.545Z,8.60
2019-04-22T23:24:16.176Z,8.43
2019-04-22T23:27:01.528Z,8.53
2019-04-22T23:29:43.289Z,8.43
2019-04-22T23:32:21.257Z,8.30
2019-04-22T23:35:01.354Z,8.13
2019-04-22T23:37:29.314Z,8.23
2019-04-22T23:40:20.397Z,8.47
2019-04-22T23:42:39.725Z,8.20
2019-04-22T23:45:14.121Z,8.67
2019-04-22T23:47:35.645Z,7.83
2019-04-22T23:50:24.398Z,8.00
2019-04-22T23:52:53.340Z,8.07
2019-04-22T23:55:33.814Z,8.80
2019-04-22T23:58:02.737Z,8.20
